CheckWX is a tool to help pilots better visualize weather data.  It is not intended as a substitute for an official pre-flight weather briefing.

00:22:02 UTC

URFF TAF
Simferopol International Airport
Simferopol, Ukraine
TAF URFF 252250Z 2600/2624 14003MPS CAVOK BECMG 2606/2608 23005MPS FM261500 26006G11MPS 9999 BKN020 SCT030CB

Mar-26@
00:00 UTC

Mar-26 @ 00:00 UTC

Mar-26@
06:00 UTC

Mar-26 @ 06:00 UTC

TAF URFF 252250Z 2600/2624 14003MPS CAVOK
Wind
  • 140° at 6 KTS
Conditions
No significant weather
Cloud Levels
  • No significant clouds

Mar-26@
06:00 UTC

Mar-26 @ 06:00 UTC

Mar-26@
15:00 UTC

Mar-26 @ 15:00 UTC

BECMG 2606/2608 23005MPS

Becoming

Becoming Conditions expected by Tue, Mar 26, 2019 @ 08:00 UTC

Wind
  • 230° at 10 KTS
Conditions
No significant weather
Cloud Levels
  • No significant clouds

Mar-26@
15:00 UTC

Mar-26 @ 15:00 UTC

Mar-27@
00:00 UTC

Mar-27 @ 00:00 UTC

FM261500 26006G11MPS 9999 BKN020 SCT030CB

From

From Standard forecast or significant change

Wind
  • 260° at 12 KTS
  • {Gusting to 21 KTS
Cloud Levels
  • Broken at 2,000' AGL
  • Scattered at 3,000' AGL